sensor_id;sensor_type;location;lat;lon;timestamp;temperature;humidity
1181;DHT22;579;52.046;8.532;2022-10-16T00:00:30;16.30;1.00
1181;DHT22;579;52.046;8.532;2022-10-16T00:02:56;16.20;1.00
1181;DHT22;579;52.046;8.532;2022-10-16T00:09:45;16.40;1.00
1181;DHT22;579;52.046;8.532;2022-10-16T00:12:12;16.40;1.00
1181;DHT22;579;52.046;8.532;2022-10-16T00:14:38;16.30;1.00
1181;DHT22;579;52.046;8.532;2022-10-16T00:17:06;16.70;1.00
1181;DHT22;579;52.046;8.532;2022-10-16T00:19:32;16.90;1.00
1181;DHT22;579;52.046;8.532;2022-10-16T00:21:59;16.80;1.00
1181;DHT22;579;52.046;8.532;2022-10-16T00:24:25;17.10;1.00
1181;DHT22;579;52.046;8.532;2022-10-16T00:30:44;16.60;1.00
1181;DHT22;579;52.046;8.532;2022-10-16T00:33:11;17.00;1.00
1181;DHT22;579;52.046;8.532;2022-10-16T00:35:37;16.80;1.00
1181;DHT22;579;52.046;8.532;2022-10-16T00:38:03;16.80;1.00
1181;DHT22;579;52.046;8.532;2022-10-16T00:40:29;16.70;1.00
1181;DHT22;579;52.046;8.532;2022-10-16T00:42:56;16.60;1.00
1181;DHT22;579;52.046;8.532;2022-10-16T00:45:22;17.10;1.00
1181;DHT22;579;52.046;8.532;2022-10-16T00:51:46;16.80;1.00
1181;DHT22;579;52.046;8.532;2022-10-16T00:54:16;16.80;1.00
1181;DHT22;579;52.046;8.532;2022-10-16T00:56:44;16.90;1.00
1181;DHT22;579;52.046;8.532;2022-10-16T00:59:16;16.90;1.00
1181;DHT22;579;52.046;8.532;2022-10-16T01:01:45;16.70;1.00
1181;DHT22;579;52.046;8.532;2022-10-16T01:04:11;16.80;1.00
1181;DHT22;579;52.046;8.532;2022-10-16T01:06:42;16.90;1.00
1181;DHT22;579;52.046;8.532;2022-10-16T01:13:17;16.70;1.00
1181;DHT22;579;52.046;8.532;2022-10-16T01:15:48;16.70;1.00
1181;DHT22;579;52.046;8.532;2022-10-16T01:18:21;16.80;1.00
1181;DHT22;579;52.046;8.532;2022-10-16T01:20:55;16.60;1.00
1181;DHT22;579;52.046;8.532;2022-10-16T01:23:36;16.50;1.00
1181;DHT22;579;52.046;8.532;2022-10-16T01:26:15;16.50;1.00
1181;DHT22;579;52.046;8.532;2022-10-16T01:33:56;16.90;1.00
1181;DHT22;579;52.046;8.532;2022-10-16T01:36:29;16.80;1.00
1181;DHT22;579;52.046;8.532;2022-10-16T01:38:59;16.70;1.00
1181;DHT22;579;52.046;8.532;2022-10-16T01:41:31;16.70;1.00
1181;DHT22;579;52.046;8.532;2022-10-16T01:44:02;16.90;1.00
1181;DHT22;579;52.046;8.532;2022-10-16T01:46:32;16.70;1.00
1181;DHT22;579;52.046;8.532;2022-10-16T01:49:01;16.70;1.00
1181;DHT22;579;52.046;8.532;2022-10-16T01:56:34;16.80;1.00
1181;DHT22;579;52.046;8.532;2022-10-16T01:59:05;16.60;1.00
1181;DHT22;579;52.046;8.532;2022-10-16T02:01:35;16.80;1.00
1181;DHT22;579;52.046;8.532;2022-10-16T02:04:13;16.70;1.00
1181;DHT22;579;52.046;8.532;2022-10-16T02:06:41;16.70;1.00
1181;DHT22;579;52.046;8.532;2022-10-16T02:09:08;16.30;1.00
1181;DHT22;579;52.046;8.532;2022-10-16T02:11:35;16.10;1.00
1181;DHT22;579;52.046;8.532;2022-10-16T02:17:42;16.10;1.00
1181;DHT22;579;52.046;8.532;2022-10-16T02:20:09;16.30;1.00
1181;DHT22;579;52.046;8.532;2022-10-16T02:22:39;16.30;1.00
1181;DHT22;579;52.046;8.532;2022-10-16T02:25:10;16.30;1.00
1181;DHT22;579;52.046;8.532;2022-10-16T02:27:45;16.40;1.00
1181;DHT22;579;52.046;8.532;2022-10-16T02:30:19;16.50;1.00
1181;DHT22;579;52.046;8.532;2022-10-16T02:32:51;16.50;1.00
1181;DHT22;579;52.046;8.532;2022-10-16T02:37:58;16.30;1.00
1181;DHT22;579;52.046;8.532;2022-10-16T02:40:25;16.30;1.00
1181;DHT22;579;52.046;8.532;2022-10-16T02:42:53;16.30;1.00
1181;DHT22;579;52.046;8.532;2022-10-16T02:45:21;16.30;1.00
1181;DHT22;579;52.046;8.532;2022-10-16T02:47:48;15.90;1.00
1181;DHT22;579;52.046;8.532;2022-10-16T02:50:15;15.80;1.00
1181;DHT22;579;52.046;8.532;2022-10-16T02:52:41;15.80;1.00
1181;DHT22;579;52.046;8.532;2022-10-16T02:58:45;15.60;1.00
1181;DHT22;579;52.046;8.532;2022-10-16T03:01:11;15.50;1.00
1181;DHT22;579;52.046;8.532;2022-10-16T03:03:39;15.30;1.00
1181;DHT22;579;52.046;8.532;2022-10-16T03:06:05;15.60;1.00
1181;DHT22;579;52.046;8.532;2022-10-16T03:08:32;15.70;1.00
1181;DHT22;579;52.046;8.532;2022-10-16T03:10:58;15.50;1.00
1181;DHT22;579;52.046;8.532;2022-10-16T03:13:24;15.50;1.00
1181;DHT22;579;52.046;8.532;2022-10-16T03:20:49;15.60;1.00
1181;DHT22;579;52.046;8.532;2022-10-16T03:23:15;15.60;1.00
1181;DHT22;579;52.046;8.532;2022-10-16T03:25:42;15.40;1.00
1181;DHT22;579;52.046;8.532;2022-10-16T03:28:08;15.40;1.00
1181;DHT22;579;52.046;8.532;2022-10-16T03:30:34;15.40;1.00
1181;DHT22;579;52.046;8.532;2022-10-16T03:33:00;15.50;1.00
1181;DHT22;579;52.046;8.532;2022-10-16T03:35:27;15.60;1.00
1181;DHT22;579;52.046;8.532;2022-10-16T03:42:56;15.60;1.00
1181;DHT22;579;52.046;8.532;2022-10-16T03:45:22;15.70;1.00
1181;DHT22;579;52.046;8.532;2022-10-16T03:47:49;15.60;1.00
1181;DHT22;579;52.046;8.532;2022-10-16T03:50:15;15.40;1.00
1181;DHT22;579;52.046;8.532;2022-10-16T03:52:42;15.50;1.00
1181;DHT22;579;52.046;8.532;2022-10-16T03:55:08;15.50;1.00
1181;DHT22;579;52.046;8.532;2022-10-16T03:57:35;15.50;1.00
1181;DHT22;579;52.046;8.532;2022-10-16T04:03:45;15.30;1.00
1181;DHT22;579;52.046;8.532;2022-10-16T04:06:11;15.50;1.00
1181;DHT22;579;52.046;8.532;2022-10-16T04:08:38;15.50;1.00
1181;DHT22;579;52.046;8.532;2022-10-16T04:11:04;15.60;1.00
1181;DHT22;579;52.046;8.532;2022-10-16T04:13:31;15.50;1.00
1181;DHT22;579;52.046;8.532;2022-10-16T04:15:57;15.70;1.00
1181;DHT22;579;52.046;8.532;2022-10-16T04:18:23;15.70;1.00
1181;DHT22;579;52.046;8.532;2022-10-16T04:23:31;17.20;1.00
1181;DHT22;579;52.046;8.532;2022-10-16T04:25:59;15.80;1.00
1181;DHT22;579;52.046;8.532;2022-10-16T04:28:26;16.00;1.00
1181;DHT22;579;52.046;8.532;2022-10-16T04:30:53;16.20;1.00
1181;DHT22;579;52.046;8.532;2022-10-16T04:33:19;15.90;1.00
1181;DHT22;579;52.046;8.532;2022-10-16T04:35:45;16.30;1.00
1181;DHT22;579;52.046;8.532;2022-10-16T04:38:12;16.40;1.00
1181;DHT22;579;52.046;8.532;2022-10-16T04:43:17;15.80;1.00
1181;DHT22;579;52.046;8.532;2022-10-16T04:45:44;15.70;1.00
1181;DHT22;579;52.046;8.532;2022-10-16T04:48:11;15.60;1.00
1181;DHT22;579;52.046;8.532;2022-10-16T04:50:37;15.50;1.00
1181;DHT22;579;52.046;8.532;2022-10-16T04:53:03;15.50;1.00
1181;DHT22;579;52.046;8.532;2022-10-16T04:55:30;15.30;1.00
1181;DHT22;579;52.046;8.532;2022-10-16T04:57:56;15.20;1.00
1181;DHT22;579;52.046;8.532;2022-10-16T05:04:46;15.70;1.00
1181;DHT22;579;52.046;8.532;2022-10-16T05:07:13;15.70;1.00
1181;DHT22;579;52.046;8.532;2022-10-16T05:09:39;15.70;1.00
1181;DHT22;579;52.046;8.532;2022-10-16T05:12:05;15.60;1.00
1181;DHT22;579;52.046;8.532;2022-10-16T05:14:32;15.70;1.00
1181;DHT22;579;52.046;8.532;2022-10-16T05:16:59;15.80;1.00
1181;DHT22;579;52.046;8.532;2022-10-16T05:19:26;15.70;1.00
1181;DHT22;579;52.046;8.532;2022-10-16T05:24:30;15.40;1.00
1181;DHT22;579;52.046;8.532;2022-10-16T05:26:56;15.60;1.00
1181;DHT22;579;52.046;8.532;2022-10-16T05:29:23;15.50;1.00
1181;DHT22;579;52.046;8.532;2022-10-16T05:31:53;15.40;1.00
1181;DHT22;579;52.046;8.532;2022-10-16T05:34:19;15.50;1.00
1181;DHT22;579;52.046;8.532;2022-10-16T05:36:46;15.50;1.00
1181;DHT22;579;52.046;8.532;2022-10-16T05:39:14;15.50;1.00
1181;DHT22;579;52.046;8.532;2022-10-16T05:46:42;15.50;1.00
1181;DHT22;579;52.046;8.532;2022-10-16T05:49:08;15.50;1.00
1181;DHT22;579;52.046;8.532;2022-10-16T05:51:34;15.30;1.00
1181;DHT22;579;52.046;8.532;2022-10-16T05:54:01;15.10;1.00
1181;DHT22;579;52.046;8.532;2022-10-16T05:56:27;15.40;1.00
1181;DHT22;579;52.046;8.532;2022-10-16T05:58:54;15.40;1.00
1181;DHT22;579;52.046;8.532;2022-10-16T06:01:20;15.40;1.00
1181;DHT22;579;52.046;8.532;2022-10-16T06:07:13;15.50;1.00
1181;DHT22;579;52.046;8.532;2022-10-16T06:09:39;15.60;1.00
1181;DHT22;579;52.046;8.532;2022-10-16T06:14:32;15.60;1.00
1181;DHT22;579;52.046;8.532;2022-10-16T06:16:58;15.50;1.00
1181;DHT22;579;52.046;8.532;2022-10-16T06:19:25;15.50;1.00
1181;DHT22;579;52.046;8.532;2022-10-16T06:21:51;15.30;1.00
1181;DHT22;579;52.046;8.532;2022-10-16T06:29:24;15.40;1.00
1181;DHT22;579;52.046;8.532;2022-10-16T06:31:51;15.70;1.00
1181;DHT22;579;52.046;8.532;2022-10-16T06:34:18;15.70;1.00
1181;DHT22;579;52.046;8.532;2022-10-16T06:36:45;15.70;1.00
1181;DHT22;579;52.046;8.532;2022-10-16T06:39:12;15.70;1.00
1181;DHT22;579;52.046;8.532;2022-10-16T06:41:38;15.50;1.00
1181;DHT22;579;52.046;8.532;2022-10-16T06:46:45;15.70;1.00
1181;DHT22;579;52.046;8.532;2022-10-16T06:49:12;15.70;1.00
1181;DHT22;579;52.046;8.532;2022-10-16T06:51:41;15.60;1.00
1181;DHT22;579;52.046;8.532;2022-10-16T06:54:08;15.50;1.00
1181;DHT22;579;52.046;8.532;2022-10-16T06:56:35;15.60;1.00
1181;DHT22;579;52.046;8.532;2022-10-16T06:59:02;15.80;1.00
1181;DHT22;579;52.046;8.532;2022-10-16T07:01:29;16.10;1.00
1181;DHT22;579;52.046;8.532;2022-10-16T07:06:37;15.70;1.00
1181;DHT22;579;52.046;8.532;2022-10-16T07:09:06;15.60;1.00
1181;DHT22;579;52.046;8.532;2022-10-16T07:11:36;15.80;1.00
1181;DHT22;579;52.046;8.532;2022-10-16T07:14:03;15.80;1.00
1181;DHT22;579;52.046;8.532;2022-10-16T07:16:32;15.70;1.00
1181;DHT22;579;52.046;8.532;2022-10-16T07:19:01;15.80;1.00
1181;DHT22;579;52.046;8.532;2022-10-16T07:21:30;15.70;1.00
1181;DHT22;579;52.046;8.532;2022-10-16T07:26:39;15.70;1.00
1181;DHT22;579;52.046;8.532;2022-10-16T07:29:07;15.80;1.00
1181;DHT22;579;52.046;8.532;2022-10-16T07:31:39;15.90;1.00
1181;DHT22;579;52.046;8.532;2022-10-16T07:34:06;15.90;1.00
1181;DHT22;579;52.046;8.532;2022-10-16T07:36:33;15.90;1.00
1181;DHT22;579;52.046;8.532;2022-10-16T07:38:59;15.90;1.00
1181;DHT22;579;52.046;8.532;2022-10-16T07:41:27;16.00;1.00
1181;DHT22;579;52.046;8.532;2022-10-16T07:46:32;15.90;1.00
1181;DHT22;579;52.046;8.532;2022-10-16T07:49:01;16.10;1.00
1181;DHT22;579;52.046;8.532;2022-10-16T07:51:28;16.10;1.00
1181;DHT22;579;52.046;8.532;2022-10-16T07:53:55;16.00;1.00
1181;DHT22;579;52.046;8.532;2022-10-16T07:56:22;16.10;1.00
1181;DHT22;579;52.046;8.532;2022-10-16T07:58:50;16.20;1.00
1181;DHT22;579;52.046;8.532;2022-10-16T08:01:18;16.20;1.00
1181;DHT22;579;52.046;8.532;2022-10-16T08:06:21;16.10;1.00
1181;DHT22;579;52.046;8.532;2022-10-16T08:08:49;16.20;1.00
1181;DHT22;579;52.046;8.532;2022-10-16T08:11:16;16.50;1.00
1181;DHT22;579;52.046;8.532;2022-10-16T08:13:43;16.60;1.00
1181;DHT22;579;52.046;8.532;2022-10-16T08:16:10;17.10;1.00
1181;DHT22;579;52.046;8.532;2022-10-16T08:18:38;17.20;1.00
1181;DHT22;579;52.046;8.532;2022-10-16T08:21:07;17.70;1.00
1181;DHT22;579;52.046;8.532;2022-10-16T08:26:11;17.70;1.00
1181;DHT22;579;52.046;8.532;2022-10-16T08:28:39;17.60;1.00
1181;DHT22;579;52.046;8.532;2022-10-16T08:31:09;17.60;1.00
1181;DHT22;579;52.046;8.532;2022-10-16T08:33:38;17.40;1.00
1181;DHT22;579;52.046;8.532;2022-10-16T08:36:07;17.70;1.00
1181;DHT22;579;52.046;8.532;2022-10-16T08:38:34;17.70;1.00
1181;DHT22;579;52.046;8.532;2022-10-16T08:46:22;18.20;1.00
1181;DHT22;579;52.046;8.532;2022-10-16T08:48:58;18.50;1.00
1181;DHT22;579;52.046;8.532;2022-10-16T08:51:29;18.80;1.00
1181;DHT22;579;52.046;8.532;2022-10-16T08:53:58;19.00;1.00
1181;DHT22;579;52.046;8.532;2022-10-16T08:56:26;19.20;1.00
1181;DHT22;579;52.046;8.532;2022-10-16T08:58:55;19.20;1.00
1181;DHT22;579;52.046;8.532;2022-10-16T09:04:30;19.70;1.00
1181;DHT22;579;52.046;8.532;2022-10-16T09:07:26;19.60;1.00
1181;DHT22;579;52.046;8.532;2022-10-16T09:10:12;19.30;1.00
1181;DHT22;579;52.046;8.532;2022-10-16T09:12:51;19.30;1.00
1181;DHT22;579;52.046;8.532;2022-10-16T09:15:25;19.70;1.00
1181;DHT22;579;52.046;8.532;2022-10-16T09:18:04;19.70;1.00
1181;DHT22;579;52.046;8.532;2022-10-16T09:21:09;19.70;1.00
1181;DHT22;579;52.046;8.532;2022-10-16T09:23:39;20.30;1.00
1181;DHT22;579;52.046;8.532;2022-10-16T09:26:13;20.50;1.00
1181;DHT22;579;52.046;8.532;2022-10-16T09:28:41;20.10;1.00
1181;DHT22;579;52.046;8.532;2022-10-16T09:31:13;19.80;1.00
1181;DHT22;579;52.046;8.532;2022-10-16T09:33:42;19.60;1.00
1181;DHT22;579;52.046;8.532;2022-10-16T09:40:43;19.20;1.00
1181;DHT22;579;52.046;8.532;2022-10-16T09:43:20;19.30;1.00
1181;DHT22;579;52.046;8.532;2022-10-16T09:46:02;18.90;1.00
1181;DHT22;579;52.046;8.532;2022-10-16T09:48:35;18.90;1.00
1181;DHT22;579;52.046;8.532;2022-10-16T09:51:05;19.10;1.00
1181;DHT22;579;52.046;8.532;2022-10-16T09:53:41;19.20;1.00
1181;DHT22;579;52.046;8.532;2022-10-16T10:00:52;18.60;1.00
1181;DHT22;579;52.046;8.532;2022-10-16T10:03:34;18.40;1.00
1181;DHT22;579;52.046;8.532;2022-10-16T10:06:16;18.30;1.00
1181;DHT22;579;52.046;8.532;2022-10-16T10:08:56;18.30;1.00
1181;DHT22;579;52.046;8.532;2022-10-16T10:11:42;18.30;1.00
1181;DHT22;579;52.046;8.532;2022-10-16T10:14:19;18.50;1.00
1181;DHT22;579;52.046;8.532;2022-10-16T10:20:46;18.50;1.00
1181;DHT22;579;52.046;8.532;2022-10-16T10:23:25;18.90;1.00
1181;DHT22;579;52.046;8.532;2022-10-16T10:25:56;19.00;1.00
1181;DHT22;579;52.046;8.532;2022-10-16T10:28:50;19.00;1.00
1181;DHT22;579;52.046;8.532;2022-10-16T10:31:26;19.20;1.00
1181;DHT22;579;52.046;8.532;2022-10-16T10:33:58;19.40;1.00
1181;DHT22;579;52.046;8.532;2022-10-16T10:40:52;19.00;1.00
1181;DHT22;579;52.046;8.532;2022-10-16T10:43:37;19.10;1.00
1181;DHT22;579;52.046;8.532;2022-10-16T10:46:16;19.10;1.00
1181;DHT22;579;52.046;8.532;2022-10-16T10:48:55;18.90;1.00
1181;DHT22;579;52.046;8.532;2022-10-16T10:51:35;18.80;1.00
1181;DHT22;579;52.046;8.532;2022-10-16T10:54:14;18.90;1.00
1181;DHT22;579;52.046;8.532;2022-10-16T10:56:59;18.90;1.00
1181;DHT22;579;52.046;8.532;2022-10-16T10:59:56;18.90;1.00
1181;DHT22;579;52.046;8.532;2022-10-16T11:02:34;19.10;1.00
1181;DHT22;579;52.046;8.532;2022-10-16T11:05:33;19.10;1.00
1181;DHT22;579;52.046;8.532;2022-10-16T11:08:13;19.20;1.00
1181;DHT22;579;52.046;8.532;2022-10-16T11:10:47;19.50;1.00
1181;DHT22;579;52.046;8.532;2022-10-16T11:16:03;20.20;1.00
1181;DHT22;579;52.046;8.532;2022-10-16T11:18:44;20.40;1.00
1181;DHT22;579;52.046;8.532;2022-10-16T11:21:19;20.20;1.00
1181;DHT22;579;52.046;8.532;2022-10-16T11:23:53;20.30;1.00
1181;DHT22;579;52.046;8.532;2022-10-16T11:26:26;20.30;1.00
1181;DHT22;579;52.046;8.532;2022-10-16T11:28:56;20.40;1.00
1181;DHT22;579;52.046;8.532;2022-10-16T11:35:53;19.90;1.00
1181;DHT22;579;52.046;8.532;2022-10-16T11:38:27;19.80;1.00
1181;DHT22;579;52.046;8.532;2022-10-16T11:41:01;19.40;1.00
1181;DHT22;579;52.046;8.532;2022-10-16T11:43:34;19.40;1.00
1181;DHT22;579;52.046;8.532;2022-10-16T11:46:09;19.50;1.00
1181;DHT22;579;52.046;8.532;2022-10-16T11:48:41;19.50;1.00
1181;DHT22;579;52.046;8.532;2022-10-16T11:55:47;19.90;1.00
1181;DHT22;579;52.046;8.532;2022-10-16T11:58:22;20.20;1.00
1181;DHT22;579;52.046;8.532;2022-10-16T12:00:58;20.40;1.00
1181;DHT22;579;52.046;8.532;2022-10-16T12:03:34;20.60;1.00
1181;DHT22;579;52.046;8.532;2022-10-16T12:06:14;20.40;1.00
1181;DHT22;579;52.046;8.532;2022-10-16T12:08:50;20.70;1.00
1181;DHT22;579;52.046;8.532;2022-10-16T12:15:45;20.30;1.00
1181;DHT22;579;52.046;8.532;2022-10-16T12:18:21;20.10;1.00
1181;DHT22;579;52.046;8.532;2022-10-16T12:20:54;20.10;1.00
1181;DHT22;579;52.046;8.532;2022-10-16T12:23:24;19.90;1.00
1181;DHT22;579;52.046;8.532;2022-10-16T12:25:55;19.60;1.00
1181;DHT22;579;52.046;8.532;2022-10-16T12:28:27;19.70;1.00
1181;DHT22;579;52.046;8.532;2022-10-16T12:35:20;19.40;1.00
1181;DHT22;579;52.046;8.532;2022-10-16T12:37:49;19.30;1.00
1181;DHT22;579;52.046;8.532;2022-10-16T12:40:26;19.70;1.00
1181;DHT22;579;52.046;8.532;2022-10-16T12:42:53;19.70;1.00
1181;DHT22;579;52.046;8.532;2022-10-16T12:45:27;19.70;1.00
1181;DHT22;579;52.046;8.532;2022-10-16T12:47:55;19.90;1.00
1181;DHT22;579;52.046;8.532;2022-10-16T12:54:19;19.80;1.00
1181;DHT22;579;52.046;8.532;2022-10-16T12:56:57;19.70;1.00
1181;DHT22;579;52.046;8.532;2022-10-16T12:59:43;19.70;1.00
1181;DHT22;579;52.046;8.532;2022-10-16T13:02:41;19.90;1.00
1181;DHT22;579;52.046;8.532;2022-10-16T13:05:26;20.10;1.00
1181;DHT22;579;52.046;8.532;2022-10-16T13:11:11;20.40;1.00
1181;DHT22;579;52.046;8.532;2022-10-16T13:17:02;20.60;1.00
1181;DHT22;579;52.046;8.532;2022-10-16T13:19:38;20.60;1.00
1181;DHT22;579;52.046;8.532;2022-10-16T13:22:16;20.60;1.00
1181;DHT22;579;52.046;8.532;2022-10-16T13:24:58;20.80;1.00
1181;DHT22;579;52.046;8.532;2022-10-16T13:30:17;20.80;1.00
1181;DHT22;579;52.046;8.532;2022-10-16T13:32:47;21.10;1.00
1181;DHT22;579;52.046;8.532;2022-10-16T13:35:25;21.20;1.00
1181;DHT22;579;52.046;8.532;2022-10-16T13:38:04;21.30;1.00
1181;DHT22;579;52.046;8.532;2022-10-16T13:40:35;21.30;1.00
1181;DHT22;579;52.046;8.532;2022-10-16T13:43:02;21.70;1.00
1181;DHT22;579;52.046;8.532;2022-10-16T13:49:46;22.20;1.00
1181;DHT22;579;52.046;8.532;2022-10-16T13:52:18;22.40;1.00
1181;DHT22;579;52.046;8.532;2022-10-16T13:54:46;22.00;1.00
1181;DHT22;579;52.046;8.532;2022-10-16T13:57:14;21.90;1.00
1181;DHT22;579;52.046;8.532;2022-10-16T13:59:41;21.60;1.00
1181;DHT22;579;52.046;8.532;2022-10-16T14:02:18;21.70;1.00
1181;DHT22;579;52.046;8.532;2022-10-16T14:07:28;21.50;1.00
1181;DHT22;579;52.046;8.532;2022-10-16T14:10:01;21.40;1.00
1181;DHT22;579;52.046;8.532;2022-10-16T14:12:29;21.40;1.00
1181;DHT22;579;52.046;8.532;2022-10-16T14:14:57;21.30;1.00
1181;DHT22;579;52.046;8.532;2022-10-16T14:17:26;21.50;1.00
1181;DHT22;579;52.046;8.532;2022-10-16T14:19:56;21.50;1.00
1181;DHT22;579;52.046;8.532;2022-10-16T14:25:26;21.70;1.00
1181;DHT22;579;52.046;8.532;2022-10-16T14:27:59;21.80;1.00
1181;DHT22;579;52.046;8.532;2022-10-16T14:30:27;21.80;1.00
1181;DHT22;579;52.046;8.532;2022-10-16T14:32:56;22.40;1.00
1181;DHT22;579;52.046;8.532;2022-10-16T14:35:27;22.70;1.00
1181;DHT22;579;52.046;8.532;2022-10-16T14:37:56;23.10;1.00
1181;DHT22;579;52.046;8.532;2022-10-16T14:45:26;22.50;1.00
1181;DHT22;579;52.046;8.532;2022-10-16T14:47:55;22.40;1.00
1181;DHT22;579;52.046;8.532;2022-10-16T14:50:24;22.60;1.00
1181;DHT22;579;52.046;8.532;2022-10-16T14:52:51;22.90;1.00
1181;DHT22;579;52.046;8.532;2022-10-16T14:55:18;23.20;1.00
1181;DHT22;579;52.046;8.532;2022-10-16T14:57:45;23.30;1.00
1181;DHT22;579;52.046;8.532;2022-10-16T15:03:06;23.10;1.00
1181;DHT22;579;52.046;8.532;2022-10-16T15:05:33;23.20;1.00
1181;DHT22;579;52.046;8.532;2022-10-16T15:08:00;23.10;1.00
1181;DHT22;579;52.046;8.532;2022-10-16T15:10:28;24.00;1.00
1181;DHT22;579;52.046;8.532;2022-10-16T15:12:57;25.80;1.00
1181;DHT22;579;52.046;8.532;2022-10-16T15:15:35;25.90;1.00
1181;DHT22;579;52.046;8.532;2022-10-16T15:22:46;28.50;1.00
1181;DHT22;579;52.046;8.532;2022-10-16T15:25:32;27.50;1.00
1181;DHT22;579;52.046;8.532;2022-10-16T15:28:02;27.30;1.00
1181;DHT22;579;52.046;8.532;2022-10-16T15:30:29;28.40;1.00
1181;DHT22;579;52.046;8.532;2022-10-16T15:32:56;29.20;1.00
1181;DHT22;579;52.046;8.532;2022-10-16T15:35:23;29.10;1.00
1181;DHT22;579;52.046;8.532;2022-10-16T15:41:47;26.30;1.00
1181;DHT22;579;52.046;8.532;2022-10-16T15:44:16;25.40;1.00
1181;DHT22;579;52.046;8.532;2022-10-16T15:46:42;24.60;1.00
1181;DHT22;579;52.046;8.532;2022-10-16T15:49:09;24.10;1.00
1181;DHT22;579;52.046;8.532;2022-10-16T15:51:38;23.90;1.00
1181;DHT22;579;52.046;8.532;2022-10-16T15:54:07;23.20;1.00
1181;DHT22;579;52.046;8.532;2022-10-16T15:56:34;23.00;1.00
1181;DHT22;579;52.046;8.532;2022-10-16T16:01:17;22.10;1.00
1181;DHT22;579;52.046;8.532;2022-10-16T16:03:44;21.90;1.00
1181;DHT22;579;52.046;8.532;2022-10-16T16:06:12;21.70;1.00
1181;DHT22;579;52.046;8.532;2022-10-16T16:08:39;21.60;1.00
1181;DHT22;579;52.046;8.532;2022-10-16T16:11:08;21.40;1.00
1181;DHT22;579;52.046;8.532;2022-10-16T16:13:37;21.30;1.00
1181;DHT22;579;52.046;8.532;2022-10-16T16:16:06;21.30;1.00
1181;DHT22;579;52.046;8.532;2022-10-16T16:18:48;21.10;1.00
1181;DHT22;579;52.046;8.532;2022-10-16T16:21:15;21.10;1.00
1181;DHT22;579;52.046;8.532;2022-10-16T16:23:41;21.00;1.00
1181;DHT22;579;52.046;8.532;2022-10-16T16:26:11;21.00;1.00
1181;DHT22;579;52.046;8.532;2022-10-16T16:28:40;20.70;1.00
1181;DHT22;579;52.046;8.532;2022-10-16T16:31:08;20.70;1.00
1181;DHT22;579;52.046;8.532;2022-10-16T16:33:35;20.70;1.00
1181;DHT22;579;52.046;8.532;2022-10-16T16:38:42;20.40;1.00
1181;DHT22;579;52.046;8.532;2022-10-16T16:41:12;20.40;1.00
1181;DHT22;579;52.046;8.532;2022-10-16T16:43:39;20.30;1.00
1181;DHT22;579;52.046;8.532;2022-10-16T16:46:06;20.20;1.00
1181;DHT22;579;52.046;8.532;2022-10-16T16:48:33;20.00;1.00
1181;DHT22;579;52.046;8.532;2022-10-16T16:51:03;19.70;1.00
1181;DHT22;579;52.046;8.532;2022-10-16T16:57:48;19.80;1.00
1181;DHT22;579;52.046;8.532;2022-10-16T17:00:15;19.80;1.00
1181;DHT22;579;52.046;8.532;2022-10-16T17:02:42;19.70;1.00
1181;DHT22;579;52.046;8.532;2022-10-16T17:05:10;19.70;1.00
1181;DHT22;579;52.046;8.532;2022-10-16T17:07:37;19.70;1.00
1181;DHT22;579;52.046;8.532;2022-10-16T17:10:07;19.40;1.00
1181;DHT22;579;52.046;8.532;2022-10-16T17:12:34;19.30;1.00
1181;DHT22;579;52.046;8.532;2022-10-16T17:18:17;19.20;1.00
1181;DHT22;579;52.046;8.532;2022-10-16T17:20:44;19.30;1.00
1181;DHT22;579;52.046;8.532;2022-10-16T17:23:11;19.30;1.00
1181;DHT22;579;52.046;8.532;2022-10-16T17:25:39;19.20;1.00
1181;DHT22;579;52.046;8.532;2022-10-16T17:28:06;19.30;1.00
1181;DHT22;579;52.046;8.532;2022-10-16T17:30:33;19.20;1.00
1181;DHT22;579;52.046;8.532;2022-10-16T17:33:00;19.10;1.00
1181;DHT22;579;52.046;8.532;2022-10-16T17:38:07;18.90;1.00
1181;DHT22;579;52.046;8.532;2022-10-16T17:40:34;19.00;1.00
1181;DHT22;579;52.046;8.532;2022-10-16T17:43:01;18.80;1.00
1181;DHT22;579;52.046;8.532;2022-10-16T17:45:28;18.80;1.00
1181;DHT22;579;52.046;8.532;2022-10-16T17:47:55;18.60;1.00
1181;DHT22;579;52.046;8.532;2022-10-16T17:50:21;18.70;1.00
1181;DHT22;579;52.046;8.532;2022-10-16T17:52:48;18.50;1.00
1181;DHT22;579;52.046;8.532;2022-10-16T17:57:51;18.30;1.00
1181;DHT22;579;52.046;8.532;2022-10-16T18:00:18;18.00;1.00
1181;DHT22;579;52.046;8.532;2022-10-16T18:02:47;18.10;1.00
1181;DHT22;579;52.046;8.532;2022-10-16T18:05:14;18.20;1.00
1181;DHT22;579;52.046;8.532;2022-10-16T18:07:40;18.20;1.00
1181;DHT22;579;52.046;8.532;2022-10-16T18:10:07;18.30;1.00
1181;DHT22;579;52.046;8.532;2022-10-16T18:12:34;18.20;1.00
1181;DHT22;579;52.046;8.532;2022-10-16T18:17:39;18.20;1.00
1181;DHT22;579;52.046;8.532;2022-10-16T18:20:07;18.20;1.00
1181;DHT22;579;52.046;8.532;2022-10-16T18:22:35;18.00;1.00
1181;DHT22;579;52.046;8.532;2022-10-16T18:25:02;18.00;1.00
1181;DHT22;579;52.046;8.532;2022-10-16T18:27:29;18.20;1.00
1181;DHT22;579;52.046;8.532;2022-10-16T18:29:56;18.30;1.00
1181;DHT22;579;52.046;8.532;2022-10-16T18:32:23;18.10;1.00
1181;DHT22;579;52.046;8.532;2022-10-16T18:37:29;18.00;1.00
1181;DHT22;579;52.046;8.532;2022-10-16T18:39:56;18.00;1.00
1181;DHT22;579;52.046;8.532;2022-10-16T18:42:23;17.80;1.00
1181;DHT22;579;52.046;8.532;2022-10-16T18:44:49;17.80;1.00
1181;DHT22;579;52.046;8.532;2022-10-16T18:47:16;17.80;1.00
1181;DHT22;579;52.046;8.532;2022-10-16T18:49:42;17.70;1.00
1181;DHT22;579;52.046;8.532;2022-10-16T18:52:11;17.50;1.00
1181;DHT22;579;52.046;8.532;2022-10-16T18:54:58;17.40;1.00
1181;DHT22;579;52.046;8.532;2022-10-16T18:57:26;17.30;1.00
1181;DHT22;579;52.046;8.532;2022-10-16T18:59:57;17.30;1.00
1181;DHT22;579;52.046;8.532;2022-10-16T19:02:23;17.30;1.00
1181;DHT22;579;52.046;8.532;2022-10-16T19:04:50;17.20;1.00
1181;DHT22;579;52.046;8.532;2022-10-16T19:07:16;17.30;1.00
1181;DHT22;579;52.046;8.532;2022-10-16T19:09:42;17.40;1.00
1181;DHT22;579;52.046;8.532;2022-10-16T19:14:47;17.50;1.00
1181;DHT22;579;52.046;8.532;2022-10-16T19:17:14;17.60;1.00
1181;DHT22;579;52.046;8.532;2022-10-16T19:19:40;17.60;1.00
1181;DHT22;579;52.046;8.532;2022-10-16T19:22:07;17.70;1.00
1181;DHT22;579;52.046;8.532;2022-10-16T19:24:39;17.60;1.00
1181;DHT22;579;52.046;8.532;2022-10-16T19:27:05;17.40;1.00
1181;DHT22;579;52.046;8.532;2022-10-16T19:29:32;17.40;1.00
1181;DHT22;579;52.046;8.532;2022-10-16T19:34:35;17.50;1.00
1181;DHT22;579;52.046;8.532;2022-10-16T19:37:01;17.60;1.00
1181;DHT22;579;52.046;8.532;2022-10-16T19:39:28;17.60;1.00
1181;DHT22;579;52.046;8.532;2022-10-16T19:41:54;17.70;1.00
1181;DHT22;579;52.046;8.532;2022-10-16T19:44:20;17.70;1.00
1181;DHT22;579;52.046;8.532;2022-10-16T19:46:47;17.50;1.00
1181;DHT22;579;52.046;8.532;2022-10-16T19:49:16;17.60;1.00
1181;DHT22;579;52.046;8.532;2022-10-16T19:54:26;17.80;1.00
1181;DHT22;579;52.046;8.532;2022-10-16T19:56:53;17.90;1.00
1181;DHT22;579;52.046;8.532;2022-10-16T19:59:19;17.80;1.00
1181;DHT22;579;52.046;8.532;2022-10-16T20:01:46;17.80;1.00
1181;DHT22;579;52.046;8.532;2022-10-16T20:04:13;17.80;1.00
1181;DHT22;579;52.046;8.532;2022-10-16T20:06:39;17.80;1.00
1181;DHT22;579;52.046;8.532;2022-10-16T20:09:05;17.60;1.00
1181;DHT22;579;52.046;8.532;2022-10-16T20:14:12;17.80;1.00
1181;DHT22;579;52.046;8.532;2022-10-16T20:16:39;17.90;1.00
1181;DHT22;579;52.046;8.532;2022-10-16T20:19:05;17.70;1.00
1181;DHT22;579;52.046;8.532;2022-10-16T20:21:34;17.60;1.00
1181;DHT22;579;52.046;8.532;2022-10-16T20:24:02;17.80;1.00